createdAt,value
2019-01-13T00:00:30.902Z,1007.51
2019-01-13T00:01:30.706Z,1007.51
2019-01-13T00:02:30.903Z,1007.50
2019-01-13T00:03:30.699Z,1007.48
2019-01-13T00:04:30.685Z,1007.49
2019-01-13T00:05:30.878Z,1007.45
2019-01-13T00:06:30.678Z,1007.41
2019-01-13T00:07:30.664Z,1007.40
2019-01-13T00:08:30.650Z,1007.42
2019-01-13T00:09:30.644Z,1007.40
2019-01-13T00:10:30.703Z,1007.38
2019-01-13T00:11:30.680Z,1007.39
2019-01-13T00:12:35.514Z,1007.42
2019-01-13T00:13:30.617Z,1007.34
2019-01-13T00:14:30.611Z,1007.38
2019-01-13T00:15:30.614Z,1007.40
2019-01-13T00:16:30.602Z,1007.41
2019-01-13T00:17:30.592Z,1007.40
2019-01-13T00:18:30.613Z,1007.39
2019-01-13T00:19:30.784Z,1007.35
2019-01-13T00:20:30.581Z,1007.32
2019-01-13T00:21:30.586Z,1007.33
2019-01-13T00:22:30.566Z,1007.37
2019-01-13T00:23:30.559Z,1007.40
2019-01-13T00:24:30.549Z,1007.37
2019-01-13T00:25:30.560Z,1007.41
2019-01-13T00:26:30.742Z,1007.39
2019-01-13T00:27:30.543Z,1007.40
2019-01-13T00:28:30.730Z,1007.42
2019-01-13T00:29:30.523Z,1007.39
2019-01-13T00:30:30.513Z,1007.40
2019-01-13T00:31:30.509Z,1007.36
2019-01-13T00:32:30.498Z,1007.34
2019-01-13T00:33:30.497Z,1007.33
2019-01-13T00:34:30.487Z,1007.35
2019-01-13T00:35:31.980Z,1007.38
2019-01-13T00:36:30.540Z,1007.38
2019-01-13T00:37:30.470Z,1007.39
2019-01-13T00:38:30.463Z,1007.39
2019-01-13T00:39:30.489Z,1007.39
2019-01-13T00:40:30.450Z,1007.40
2019-01-13T00:41:30.448Z,1007.42
2019-01-13T00:42:30.442Z,1007.41
2019-01-13T00:43:30.640Z,1007.39
2019-01-13T00:44:30.427Z,1007.44
2019-01-13T00:45:30.436Z,1007.41
2019-01-13T00:46:30.622Z,1007.41
2019-01-13T00:47:30.415Z,1007.45
2019-01-13T00:48:30.423Z,1007.42
2019-01-13T00:49:30.414Z,1007.41
2019-01-13T00:50:30.410Z,1007.39
2019-01-13T00:51:30.388Z,1007.40
2019-01-13T00:52:30.379Z,1007.37
2019-01-13T00:53:30.392Z,1007.41
2019-01-13T00:54:30.380Z,1007.45
2019-01-13T00:55:30.356Z,1007.42
2019-01-13T00:56:30.346Z,1007.44
2019-01-13T00:57:30.352Z,1007.42
2019-01-13T00:58:30.544Z,1007.41
2019-01-13T00:59:30.353Z,1007.40
2019-01-13T01:00:30.542Z,1007.36
2019-01-13T01:01:30.324Z,1007.34
2019-01-13T01:02:30.312Z,1007.34
2019-01-13T01:03:30.314Z,1007.29
2019-01-13T01:04:30.512Z,1007.32
2019-01-13T01:05:30.502Z,1007.30
2019-01-13T01:06:30.285Z,1007.28
2019-01-13T01:07:30.281Z,1007.23
2019-01-13T01:08:30.280Z,1007.17
2019-01-13T01:09:30.286Z,1007.19
2019-01-13T01:10:30.279Z,1007.15
2019-01-13T01:11:30.270Z,1007.13
2019-01-13T01:12:30.253Z,1007.13
2019-01-13T01:13:30.244Z,1007.14
2019-01-13T01:14:30.245Z,1007.12
2019-01-13T01:15:30.242Z,1007.07
2019-01-13T01:16:30.436Z,1007.11
2019-01-13T01:17:30.220Z,1007.14
2019-01-13T01:18:30.221Z,1007.14
2019-01-13T01:19:30.214Z,1007.13
2019-01-13T01:20:30.404Z,1007.10
2019-01-13T01:21:30.222Z,1007.12
2019-01-13T01:22:30.208Z,1007.12
2019-01-13T01:23:30.191Z,1007.13
2019-01-13T01:24:30.192Z,1007.11
2019-01-13T01:25:30.177Z,1007.05
2019-01-13T01:26:30.176Z,1007.02
2019-01-13T01:27:30.171Z,1007.01
2019-01-13T01:28:30.159Z,1006.98
2019-01-13T01:29:30.373Z,1006.99
2019-01-13T01:30:33.519Z,1007.07
2019-01-13T01:31:30.154Z,1007.06
2019-01-13T01:32:30.157Z,1007.14
2019-01-13T01:33:30.128Z,1007.13
2019-01-13T01:34:30.347Z,1007.14
2019-01-13T01:35:30.123Z,1007.15
2019-01-13T01:36:30.111Z,1007.14
2019-01-13T01:37:30.109Z,1007.16
2019-01-13T01:38:30.101Z,1007.19
2019-01-13T01:39:30.312Z,1007.24
2019-01-13T01:40:30.293Z,1007.25
2019-01-13T01:41:30.089Z,1007.23
2019-01-13T01:42:30.082Z,1007.21
2019-01-13T01:43:30.061Z,1007.16
2019-01-13T01:44:30.064Z,1007.15
2019-01-13T01:45:30.051Z,1007.07
2019-01-13T01:46:30.054Z,1007.09
2019-01-13T01:47:30.067Z,1007.07
2019-01-13T01:48:30.036Z,1007.06
2019-01-13T01:49:30.031Z,1007.00
2019-01-13T01:50:30.226Z,1007.05
2019-01-13T01:51:30.024Z,1007.03
2019-01-13T01:52:30.030Z,1007.04
2019-01-13T01:53:30.008Z,1007.04
2019-01-13T01:54:30.001Z,1007.08
2019-01-13T01:55:29.993Z,1007.10
2019-01-13T01:56:29.995Z,1007.07
2019-01-13T01:57:29.995Z,1007.02
2019-01-13T01:58:30.003Z,1006.95
2019-01-13T01:59:29.985Z,1006.98
2019-01-13T02:00:29.960Z,1006.97
2019-01-13T02:01:29.969Z,1006.97
2019-01-13T02:02:29.951Z,1006.96
2019-01-13T02:03:29.971Z,1006.97
2019-01-13T02:04:29.940Z,1006.96
2019-01-13T02:05:29.930Z,1006.89
2019-01-13T02:06:29.926Z,1006.92
2019-01-13T02:07:29.968Z,1006.91
2019-01-13T02:08:29.925Z,1006.92
2019-01-13T02:09:29.911Z,1006.86
2019-01-13T02:10:29.901Z,1006.90
2019-01-13T02:11:29.895Z,1006.95
2019-01-13T02:12:29.891Z,1006.89
2019-01-13T02:13:30.097Z,1006.93
2019-01-13T02:14:30.078Z,1006.87
2019-01-13T02:15:29.866Z,1006.82
2019-01-13T02:16:29.868Z,1006.81
2019-01-13T02:17:29.866Z,1006.74
2019-01-13T02:18:29.861Z,1006.69
2019-01-13T02:19:29.844Z,1006.61
2019-01-13T02:20:30.044Z,1006.47
2019-01-13T02:21:30.050Z,1006.43
2019-01-13T02:22:29.843Z,1006.44
2019-01-13T02:23:29.838Z,1006.47
2019-01-13T02:24:29.817Z,1006.49
2019-01-13T02:25:29.815Z,1006.44
2019-01-13T02:26:29.825Z,1006.49
2019-01-13T02:27:29.803Z,1006.45
2019-01-13T02:28:30.010Z,1006.39
2019-01-13T02:29:29.998Z,1006.40
2019-01-13T02:30:29.985Z,1006.40
2019-01-13T02:31:29.976Z,1006.44
2019-01-13T02:32:29.769Z,1006.46
2019-01-13T02:33:29.965Z,1006.44
2019-01-13T02:34:29.754Z,1006.41
2019-01-13T02:35:29.774Z,1006.40
2019-01-13T02:36:29.744Z,1006.41
2019-01-13T02:37:29.740Z,1006.36
2019-01-13T02:38:29.748Z,1006.40
2019-01-13T02:39:29.929Z,1006.38
2019-01-13T02:40:29.720Z,1006.40
2019-01-13T02:41:29.725Z,1006.37
2019-01-13T02:42:29.726Z,1006.38
2019-01-13T02:43:29.704Z,1006.35
2019-01-13T02:44:29.901Z,1006.30
2019-01-13T02:45:29.706Z,1006.26
2019-01-13T02:46:29.690Z,1006.24
2019-01-13T02:47:29.683Z,1006.25
2019-01-13T02:48:29.899Z,1006.25
2019-01-13T02:49:29.680Z,1006.28
2019-01-13T02:50:29.658Z,1006.25
2019-01-13T02:51:29.864Z,1006.28
2019-01-13T02:52:29.652Z,1006.31
2019-01-13T02:53:29.644Z,1006.32
2019-01-13T02:54:29.646Z,1006.35
2019-01-13T02:55:29.644Z,1006.35
2019-01-13T02:56:29.629Z,1006.37
2019-01-13T02:57:29.634Z,1006.42
2019-01-13T02:58:29.607Z,1006.36
2019-01-13T02:59:29.628Z,1006.43
2019-01-13T03:00:29.614Z,1006.42
2019-01-13T03:01:29.796Z,1006.43
2019-01-13T03:02:29.594Z,1006.44
2019-01-13T03:03:29.596Z,1006.42
2019-01-13T03:04:29.577Z,1006.41
2019-01-13T03:05:29.570Z,1006.40
2019-01-13T03:06:29.573Z,1006.38
2019-01-13T03:07:29.574Z,1006.42
2019-01-13T03:08:29.552Z,1006.44
2019-01-13T03:09:29.551Z,1006.47
2019-01-13T03:10:29.546Z,1006.44
2019-01-13T03:11:29.534Z,1006.44
2019-01-13T03:12:29.537Z,1006.45
2019-01-13T03:13:29.519Z,1006.58
2019-01-13T03:14:29.737Z,1006.58
2019-01-13T03:15:29.528Z,1006.56
2019-01-13T03:16:29.509Z,1006.61
2019-01-13T03:17:29.502Z,1006.61
2019-01-13T03:18:29.705Z,1006.57
2019-01-13T03:19:29.497Z,1006.61
2019-01-13T03:20:29.479Z,1006.60
2019-01-13T03:21:29.495Z,1006.58
2019-01-13T03:22:29.499Z,1006.59
2019-01-13T03:23:29.469Z,1006.59
2019-01-13T03:24:29.464Z,1006.46
2019-01-13T03:25:29.458Z,1006.45
2019-01-13T03:26:29.444Z,1006.46
2019-01-13T03:27:29.651Z,1006.41
2019-01-13T03:28:29.455Z,1006.43
2019-01-13T03:29:29.636Z,1006.41
2019-01-13T03:30:29.437Z,1006.41
2019-01-13T03:31:29.435Z,1006.46
2019-01-13T03:32:29.427Z,1006.42
2019-01-13T03:33:29.421Z,1006.39
2019-01-13T03:34:29.399Z,1006.40
2019-01-13T03:35:29.418Z,1006.34
2019-01-13T03:36:29.382Z,1006.32
2019-01-13T03:37:29.385Z,1006.32
2019-01-13T03:38:29.376Z,1006.28
2019-01-13T03:39:29.376Z,1006.23
2019-01-13T03:40:29.369Z,1006.20
2019-01-13T03:41:29.370Z,1006.13
2019-01-13T03:42:29.360Z,1006.15
2019-01-13T03:43:29.353Z,1006.07
2019-01-13T03:44:29.337Z,1006.03
2019-01-13T03:45:31.076Z,1005.93
2019-01-13T03:46:29.330Z,1005.91
2019-01-13T03:47:29.320Z,1005.82
2019-01-13T03:48:29.309Z,1005.81
2019-01-13T03:49:29.309Z,1005.78
2019-01-13T03:50:29.301Z,1005.77
2019-01-13T03:51:29.305Z,1005.78
2019-01-13T03:52:29.319Z,1005.82
2019-01-13T03:53:29.296Z,1005.79
2019-01-13T03:54:29.282Z,1005.73
2019-01-13T03:55:29.285Z,1005.71
2019-01-13T03:56:29.281Z,1005.68
2019-01-13T03:57:29.269Z,1005.67
2019-01-13T03:58:29.269Z,1005.66
2019-01-13T03:59:29.251Z,1005.63
2019-01-13T04:00:29.451Z,1005.59
2019-01-13T04:01:29.250Z,1005.59
2019-01-13T04:02:29.229Z,1005.61
2019-01-13T04:03:29.224Z,1005.63
2019-01-13T04:04:29.219Z,1005.58
2019-01-13T04:05:29.216Z,1005.57
2019-01-13T04:06:29.211Z,1005.60
2019-01-13T04:07:29.207Z,1005.60
2019-01-13T04:08:29.190Z,1005.57
2019-01-13T04:09:29.185Z,1005.52
2019-01-13T04:10:29.176Z,1005.47
2019-01-13T04:11:29.182Z,1005.45
2019-01-13T04:12:29.187Z,1005.44
2019-01-13T04:13:29.165Z,1005.44
2019-01-13T04:14:29.157Z,1005.42
2019-01-13T04:15:29.163Z,1005.46
2019-01-13T04:16:29.175Z,1005.41
2019-01-13T04:17:29.172Z,1005.47
2019-01-13T04:18:29.345Z,1005.45
2019-01-13T04:19:29.128Z,1005.41
2019-01-13T04:20:29.389Z,1005.36
2019-01-13T04:21:29.111Z,1005.33
2019-01-13T04:22:29.107Z,1005.25
2019-01-13T04:23:29.303Z,1005.24
2019-01-13T04:24:29.111Z,1005.25
2019-01-13T04:25:29.111Z,1005.17
2019-01-13T04:26:29.297Z,1005.20
2019-01-13T04:27:29.085Z,1005.16
2019-01-13T04:28:29.085Z,1005.14
2019-01-13T04:29:29.062Z,1005.12
2019-01-13T04:30:29.160Z,1005.10
2019-01-13T04:31:29.056Z,1005.05
2019-01-13T04:32:29.251Z,1005.02
2019-01-13T04:33:29.077Z,1004.99
2019-01-13T04:34:29.092Z,1004.96
2019-01-13T04:35:29.036Z,1004.89
2019-01-13T04:36:29.034Z,1004.91
2019-01-13T04:37:29.024Z,1004.94
2019-01-13T04:38:29.014Z,1004.95
2019-01-13T04:39:29.027Z,1004.92
2019-01-13T04:40:29.022Z,1004.96
2019-01-13T04:41:28.989Z,1004.94
2019-01-13T04:42:29.011Z,1004.98
2019-01-13T04:43:28.988Z,1004.96
2019-01-13T04:44:28.977Z,1005.00
2019-01-13T04:45:28.970Z,1004.94
2019-01-13T04:46:28.975Z,1004.98
2019-01-13T04:47:29.023Z,1005.00
2019-01-13T04:48:28.952Z,1004.94
2019-01-13T04:49:29.150Z,1004.92
2019-01-13T04:50:28.943Z,1004.91
2019-01-13T04:51:28.963Z,1004.87
2019-01-13T04:52:28.940Z,1004.87
2019-01-13T04:53:29.140Z,1004.83
2019-01-13T04:54:29.127Z,1004.77
2019-01-13T04:55:28.924Z,1004.82
2019-01-13T04:56:28.907Z,1004.81
2019-01-13T04:57:29.110Z,1004.80
2019-01-13T04:58:28.900Z,1004.77
2019-01-13T04:59:28.894Z,1004.73
2019-01-13T05:00:28.880Z,1004.69
2019-01-13T05:01:34.456Z,1004.68
2019-01-13T05:02:29.087Z,1004.66
2019-01-13T05:03:28.864Z,1004.64
2019-01-13T05:04:28.858Z,1004.60
2019-01-13T05:05:28.844Z,1004.58
2019-01-13T05:06:29.457Z,1004.57
2019-01-13T05:07:28.843Z,1004.52
2019-01-13T05:08:28.843Z,1004.49
2019-01-13T05:09:28.841Z,1004.40
2019-01-13T05:10:28.819Z,1004.36
2019-01-13T05:11:28.829Z,1004.33
2019-01-13T05:12:28.811Z,1004.28
2019-01-13T05:13:28.812Z,1004.27
2019-01-13T05:14:28.792Z,1004.24
2019-01-13T05:15:28.807Z,1004.20
2019-01-13T05:16:28.779Z,1004.15
2019-01-13T05:17:28.791Z,1004.18
2019-01-13T05:18:28.765Z,1004.28
2019-01-13T05:19:29.016Z,1004.27
2019-01-13T05:20:28.764Z,1004.22
2019-01-13T05:21:28.755Z,1004.23
2019-01-13T05:22:28.948Z,1004.19
2019-01-13T05:23:28.738Z,1004.16
2019-01-13T05:24:28.762Z,1004.10
2019-01-13T05:25:28.730Z,1004.10
2019-01-13T05:26:28.731Z,1004.08
2019-01-13T05:27:28.732Z,1003.97
2019-01-13T05:28:28.713Z,1003.98
2019-01-13T05:29:28.710Z,1003.94
2019-01-13T05:30:28.714Z,1003.91
2019-01-13T05:31:28.692Z,1003.90
2019-01-13T05:32:28.692Z,1003.89
2019-01-13T05:33:28.676Z,1003.89
2019-01-13T05:34:28.671Z,1003.84
2019-01-13T05:35:28.690Z,1003.72
2019-01-13T05:36:28.660Z,1003.70
2019-01-13T05:37:28.669Z,1003.68
2019-01-13T05:38:28.666Z,1003.74
2019-01-13T05:39:28.653Z,1003.70
2019-01-13T05:40:28.668Z,1003.75
2019-01-13T05:41:28.634Z,1003.80
2019-01-13T05:42:28.628Z,1003.78
2019-01-13T05:43:28.628Z,1003.73
2019-01-13T05:44:28.630Z,1003.68
2019-01-13T05:45:28.609Z,1003.66
2019-01-13T05:46:28.614Z,1003.67
2019-01-13T05:47:28.615Z,1003.64
2019-01-13T05:48:28.593Z,1003.67
2019-01-13T05:49:28.601Z,1003.61
2019-01-13T05:50:28.592Z,1003.57
2019-01-13T05:51:28.585Z,1003.55
2019-01-13T05:52:28.577Z,1003.57
2019-01-13T05:53:28.777Z,1003.56
2019-01-13T05:54:28.561Z,1003.52
2019-01-13T05:55:28.564Z,1003.48
2019-01-13T05:56:28.559Z,1003.51
2019-01-13T05:57:28.534Z,1003.47
2019-01-13T05:58:28.533Z,1003.43
2019-01-13T05:59:28.531Z,1003.47
2019-01-13T06:00:28.513Z,1003.48
2019-01-13T06:01:28.510Z,1003.49
2019-01-13T06:02:28.510Z,1003.55
2019-01-13T06:03:28.510Z,1003.51
2019-01-13T06:04:28.496Z,1003.56
2019-01-13T06:05:28.487Z,1003.55
2019-01-13T06:06:28.479Z,1003.49
2019-01-13T06:07:28.481Z,1003.49
2019-01-13T06:08:28.492Z,1003.51
2019-01-13T06:09:28.461Z,1003.51
2019-01-13T06:10:28.462Z,1003.54
2019-01-13T06:11:28.465Z,1003.54
2019-01-13T06:12:28.450Z,1003.56
2019-01-13T06:13:28.444Z,1003.65
2019-01-13T06:14:28.449Z,1003.64
2019-01-13T06:15:28.442Z,1003.63
2019-01-13T06:16:28.423Z,1003.65
2019-01-13T06:17:28.420Z,1003.66
2019-01-13T06:18:28.408Z,1003.61
2019-01-13T06:19:28.408Z,1003.53
2019-01-13T06:20:28.611Z,1003.49
2019-01-13T06:21:28.394Z,1003.50
2019-01-13T06:22:28.602Z,1003.46
2019-01-13T06:23:28.398Z,1003.45
2019-01-13T06:24:28.573Z,1003.47
2019-01-13T06:25:28.571Z,1003.54
2019-01-13T06:26:28.369Z,1003.48
2019-01-13T06:27:28.365Z,1003.50
2019-01-13T06:28:28.366Z,1003.50
2019-01-13T06:29:28.345Z,1003.55
2019-01-13T06:30:28.336Z,1003.50
2019-01-13T06:31:28.337Z,1003.50
2019-01-13T06:32:28.337Z,1003.51
2019-01-13T06:33:28.323Z,1003.48
2019-01-13T06:34:28.323Z,1003.50
2019-01-13T06:35:28.324Z,1003.48
2019-01-13T06:36:28.302Z,1003.48
2019-01-13T06:37:28.304Z,1003.45
2019-01-13T06:38:28.306Z,1003.46
2019-01-13T06:39:28.301Z,1003.41
2019-01-13T06:40:28.326Z,1003.38
2019-01-13T06:41:28.283Z,1003.38
2019-01-13T06:42:28.269Z,1003.39
2019-01-13T06:43:28.268Z,1003.35
2019-01-13T06:44:28.256Z,1003.40
2019-01-13T06:45:28.265Z,1003.36
2019-01-13T06:46:28.246Z,1003.38
2019-01-13T06:47:28.438Z,1003.33
2019-01-13T06:48:28.247Z,1003.34
2019-01-13T06:49:28.221Z,1003.28
2019-01-13T06:50:28.236Z,1003.26
2019-01-13T06:51:28.207Z,1003.29
2019-01-13T06:52:28.215Z,1003.33
2019-01-13T06:53:28.403Z,1003.29
2019-01-13T06:54:28.404Z,1003.29
2019-01-13T06:55:28.188Z,1003.24
2019-01-13T06:56:28.182Z,1003.31
2019-01-13T06:57:28.209Z,1003.29
2019-01-13T06:58:28.172Z,1003.24
2019-01-13T06:59:28.161Z,1003.18
2019-01-13T07:00:28.177Z,1003.18
2019-01-13T07:01:28.180Z,1003.19
2019-01-13T07:02:28.362Z,1003.20
2019-01-13T07:03:28.154Z,1003.20
2019-01-13T07:04:28.135Z,1003.19
2019-01-13T07:05:28.136Z,1003.24
2019-01-13T07:06:28.133Z,1003.21
2019-01-13T07:07:28.119Z,1003.19
2019-01-13T07:08:28.111Z,1003.16
2019-01-13T07:09:28.101Z,1003.23
2019-01-13T07:10:28.126Z,1003.18
2019-01-13T07:11:28.088Z,1003.12
2019-01-13T07:12:28.107Z,1003.11
2019-01-13T07:13:28.099Z,1003.03
2019-01-13T07:14:28.088Z,1003.12
2019-01-13T07:15:28.076Z,1003.07
2019-01-13T07:16:28.061Z,1003.06
2019-01-13T07:17:28.053Z,1003.07
2019-01-13T07:18:28.052Z,1003.06
2019-01-13T07:19:28.054Z,1003.02
2019-01-13T07:20:28.070Z,1003.04
2019-01-13T07:21:28.036Z,1003.06
2019-01-13T07:22:28.031Z,1003.03
2019-01-13T07:23:28.029Z,1003.01
2019-01-13T07:24:28.016Z,1003.00
2019-01-13T07:25:28.004Z,1003.01
2019-01-13T07:26:28.214Z,1003.02
2019-01-13T07:27:28.002Z,1002.98
2019-01-13T07:28:27.986Z,1002.98
2019-01-13T07:29:27.982Z,1002.90
2019-01-13T07:30:27.975Z,1002.92
2019-01-13T07:31:27.989Z,1002.91
2019-01-13T07:32:27.974Z,1002.85
2019-01-13T07:33:27.968Z,1002.82
2019-01-13T07:34:27.969Z,1002.89
2019-01-13T07:35:27.948Z,1002.88
2019-01-13T07:36:27.962Z,1002.90
2019-01-13T07:37:27.940Z,1002.86
2019-01-13T07:38:27.933Z,1002.85
2019-01-13T07:39:27.942Z,1002.81
2019-01-13T07:40:27.932Z,1002.78
2019-01-13T07:41:27.911Z,1002.78
2019-01-13T07:42:27.908Z,1002.76
2019-01-13T07:43:27.930Z,1002.74
2019-01-13T07:44:27.911Z,1002.71
2019-01-13T07:45:27.923Z,1002.69
2019-01-13T07:46:27.889Z,1002.69
2019-01-13T07:47:27.877Z,1002.66
2019-01-13T07:48:27.880Z,1002.62
2019-01-13T07:49:27.868Z,1002.67
2019-01-13T07:50:27.875Z,1002.62
2019-01-13T07:51:27.885Z,1002.58
2019-01-13T07:52:27.852Z,1002.61
2019-01-13T07:53:28.247Z,1002.62
2019-01-13T07:54:27.841Z,1002.63
2019-01-13T07:55:27.848Z,1002.64
2019-01-13T07:56:27.830Z,1002.65
2019-01-13T07:57:27.829Z,1002.68
2019-01-13T07:58:27.830Z,1002.65
2019-01-13T07:59:27.821Z,1002.63
2019-01-13T08:00:27.803Z,1002.64
2019-01-13T08:01:27.798Z,1002.62
2019-01-13T08:02:27.806Z,1002.64
2019-01-13T08:03:27.790Z,1002.63
2019-01-13T08:04:27.779Z,1002.62
2019-01-13T08:05:27.784Z,1002.63
2019-01-13T08:06:27.783Z,1002.59
2019-01-13T08:07:27.779Z,1002.58
2019-01-13T08:08:27.756Z,1002.63
2019-01-13T08:09:27.769Z,1002.63
2019-01-13T08:10:27.770Z,1002.59
2019-01-13T08:11:27.742Z,1002.59
2019-01-13T08:12:27.734Z,1002.60
2019-01-13T08:13:27.721Z,1002.62
2019-01-13T08:14:27.724Z,1002.62
2019-01-13T08:15:27.712Z,1002.58
2019-01-13T08:16:27.710Z,1002.58
2019-01-13T08:17:27.710Z,1002.55
2019-01-13T08:18:27.701Z,1002.56
2019-01-13T08:19:27.689Z,1002.53
2019-01-13T08:20:27.681Z,1002.53
2019-01-13T08:21:27.686Z,1002.56
2019-01-13T08:22:27.673Z,1002.49
2019-01-13T08:23:27.673Z,1002.48
2019-01-13T08:24:29.076Z,1002.47
2019-01-13T08:25:27.659Z,1002.45
2019-01-13T08:26:27.878Z,1002.44
2019-01-13T08:27:27.648Z,1002.39
2019-01-13T08:28:27.655Z,1002.36
2019-01-13T08:29:27.637Z,1002.39
2019-01-13T08:30:27.842Z,1002.44
2019-01-13T08:31:27.635Z,1002.46
2019-01-13T08:32:27.833Z,1002.38
2019-01-13T08:33:27.819Z,1002.34
2019-01-13T08:34:27.610Z,1002.39
2019-01-13T08:35:27.602Z,1002.32
2019-01-13T08:36:27.600Z,1002.39
2019-01-13T08:37:27.588Z,1002.36
2019-01-13T08:38:27.602Z,1002.37
2019-01-13T08:39:27.589Z,1002.39
2019-01-13T08:40:27.567Z,1002.37
2019-01-13T08:41:27.587Z,1002.43
2019-01-13T08:42:27.588Z,1002.37
2019-01-13T08:43:27.554Z,1002.37
2019-01-13T08:44:27.540Z,1002.38
2019-01-13T08:45:27.541Z,1002.35
2019-01-13T08:46:27.526Z,1002.28
2019-01-13T08:47:27.549Z,1002.31
2019-01-13T08:48:27.551Z,1002.24
2019-01-13T08:49:27.527Z,1002.27
2019-01-13T08:50:27.507Z,1002.21
2019-01-13T08:51:27.516Z,1002.23
2019-01-13T08:52:27.502Z,1002.21
2019-01-13T08:53:27.496Z,1002.23
2019-01-13T08:54:27.506Z,1002.29
2019-01-13T08:55:27.681Z,1002.32
2019-01-13T08:56:27.471Z,1002.29
2019-01-13T08:57:27.472Z,1002.24
2019-01-13T08:58:27.462Z,1002.27
2019-01-13T08:59:27.473Z,1002.24
2019-01-13T09:00:27.460Z,1002.27
2019-01-13T09:01:27.444Z,1002.22
2019-01-13T09:02:32.182Z,1002.14
2019-01-13T09:03:27.455Z,1002.16
2019-01-13T09:04:27.434Z,1002.14
2019-01-13T09:05:27.422Z,1002.13
2019-01-13T09:06:27.417Z,1002.11
2019-01-13T09:07:27.438Z,1002.15
2019-01-13T09:08:27.431Z,1002.14
2019-01-13T09:09:27.415Z,1002.07
2019-01-13T09:10:27.395Z,1002.12
2019-01-13T09:11:27.388Z,1002.11
2019-01-13T09:12:27.378Z,1002.07
2019-01-13T09:13:27.380Z,1002.07
2019-01-13T09:14:27.368Z,1002.11
2019-01-13T09:15:27.365Z,1002.02
2019-01-13T09:16:27.367Z,1001.98
2019-01-13T09:17:27.355Z,1001.95
2019-01-13T09:18:27.347Z,1001.94
2019-01-13T09:19:27.337Z,1001.95
2019-01-13T09:20:27.337Z,1001.94
2019-01-13T09:21:27.337Z,1001.85
2019-01-13T09:22:27.319Z,1001.90
2019-01-13T09:23:27.311Z,1001.90
2019-01-13T09:24:27.306Z,1001.85
2019-01-13T09:25:27.311Z,1001.86
2019-01-13T09:26:27.302Z,1001.89
2019-01-13T09:27:27.299Z,1001.84
2019-01-13T09:28:27.287Z,1001.81
2019-01-13T09:29:27.291Z,1001.87
2019-01-13T09:30:27.280Z,1001.83
2019-01-13T09:31:27.270Z,1001.85
2019-01-13T09:32:27.276Z,1001.84
2019-01-13T09:33:27.259Z,1001.82
2019-01-13T09:34:27.262Z,1001.79
2019-01-13T09:35:27.250Z,1001.86
2019-01-13T09:36:27.237Z,1001.80
2019-01-13T09:37:27.243Z,1001.77
2019-01-13T09:38:27.233Z,1001.74
2019-01-13T09:39:27.237Z,1001.77
2019-01-13T09:40:27.226Z,1001.73
2019-01-13T09:41:27.226Z,1001.76
2019-01-13T09:42:27.203Z,1001.71
2019-01-13T09:43:27.201Z,1001.69
2019-01-13T09:44:27.199Z,1001.66
2019-01-13T09:45:27.182Z,1001.70
2019-01-13T09:46:27.184Z,1001.76
2019-01-13T09:47:27.185Z,1001.72
2019-01-13T09:48:27.168Z,1001.75
2019-01-13T09:49:27.164Z,1001.78
2019-01-13T09:50:27.179Z,1001.77
2019-01-13T09:51:27.154Z,1001.78
2019-01-13T09:52:27.143Z,1001.73
2019-01-13T09:53:27.155Z,1001.75
2019-01-13T09:54:27.147Z,1001.80
2019-01-13T09:55:27.134Z,1001.78
2019-01-13T09:56:27.130Z,1001.74
2019-01-13T09:57:27.126Z,1001.71
2019-01-13T09:58:27.106Z,1001.71
2019-01-13T09:59:27.100Z,1001.66
2019-01-13T10:00:27.097Z,1001.62
2019-01-13T10:01:27.095Z,1001.67
2019-01-13T10:02:27.084Z,1001.61
2019-01-13T10:03:27.088Z,1001.60
2019-01-13T10:04:27.092Z,1001.58
2019-01-13T10:05:27.080Z,1001.56
2019-01-13T10:06:27.061Z,1001.52
2019-01-13T10:07:27.071Z,1001.50
2019-01-13T10:08:27.056Z,1001.49
2019-01-13T10:09:27.054Z,1001.50
2019-01-13T10:10:27.059Z,1001.45
2019-01-13T10:11:27.035Z,1001.41
2019-01-13T10:12:27.030Z,1001.36
2019-01-13T10:13:27.019Z,1001.26
2019-01-13T10:14:27.225Z,1001.36
2019-01-13T10:15:27.022Z,1001.27
2019-01-13T10:16:27.020Z,1001.35
2019-01-13T10:17:27.010Z,1001.35
2019-01-13T10:18:26.995Z,1001.37
2019-01-13T10:19:26.996Z,1001.31
2019-01-13T10:20:26.999Z,1001.38
2019-01-13T10:21:26.995Z,1001.32
2019-01-13T10:22:26.978Z,1001.32
2019-01-13T10:23:26.970Z,1001.29
2019-01-13T10:24:26.956Z,1001.35
2019-01-13T10:25:27.161Z,1001.41
2019-01-13T10:26:26.973Z,1001.44
2019-01-13T10:27:26.941Z,1001.44
2019-01-13T10:28:26.942Z,1001.46
2019-01-13T10:29:26.926Z,1001.49
2019-01-13T10:30:26.924Z,1001.44
2019-01-13T10:31:26.938Z,1001.43
2019-01-13T10:32:26.975Z,1001.43
2019-01-13T10:33:26.917Z,1001.39
2019-01-13T10:34:26.917Z,1001.47
2019-01-13T10:35:26.900Z,1001.44
2019-01-13T10:36:26.904Z,1001.33
2019-01-13T10:37:26.888Z,1001.37
2019-01-13T10:38:26.883Z,1001.39
2019-01-13T10:39:26.885Z,1001.32
2019-01-13T10:40:26.882Z,1001.23
2019-01-13T10:41:26.861Z,1001.25
2019-01-13T10:42:26.872Z,1001.20
2019-01-13T10:43:26.846Z,1001.22
2019-01-13T10:44:26.852Z,1001.22
2019-01-13T10:45:26.850Z,1001.17
2019-01-13T10:46:26.833Z,1001.17
2019-01-13T10:47:26.823Z,1001.16
2019-01-13T10:48:26.829Z,1001.09
2019-01-13T10:49:26.812Z,1001.03
2019-01-13T10:50:26.807Z,1001.02
2019-01-13T10:51:26.816Z,1000.84
2019-01-13T10:52:26.800Z,1000.84
2019-01-13T10:53:26.802Z,1000.74
2019-01-13T10:54:26.797Z,1000.75
2019-01-13T10:55:26.783Z,1000.77
2019-01-13T10:56:26.777Z,1000.75
2019-01-13T10:57:26.779Z,1000.79
2019-01-13T10:58:26.765Z,1000.72
2019-01-13T10:59:26.767Z,1000.72
2019-01-13T11:00:26.764Z,1000.67
2019-01-13T11:01:28.176Z,1000.69
2019-01-13T11:02:26.766Z,1000.64
2019-01-13T11:03:26.746Z,1000.62
2019-01-13T11:04:26.728Z,1000.67
2019-01-13T11:05:26.732Z,1000.63
2019-01-13T11:06:26.725Z,1000.60
2019-01-13T11:07:26.719Z,1000.61
2019-01-13T11:08:26.727Z,1000.64
2019-01-13T11:09:26.730Z,1000.59
2019-01-13T11:10:26.701Z,1000.62
2019-01-13T11:11:26.705Z,1000.54
2019-01-13T11:12:26.682Z,1000.52
2019-01-13T11:13:26.691Z,1000.58
2019-01-13T11:14:26.706Z,1000.58
2019-01-13T11:15:26.675Z,1000.61
2019-01-13T11:16:26.663Z,1000.57
2019-01-13T11:17:26.679Z,1000.60
2019-01-13T11:18:26.665Z,1000.56
2019-01-13T11:19:26.645Z,1000.51
2019-01-13T11:20:26.643Z,1000.53
2019-01-13T11:21:26.634Z,1000.46
2019-01-13T11:22:26.643Z,1000.44
2019-01-13T11:23:26.824Z,1000.39
2019-01-13T11:24:26.829Z,1000.43
2019-01-13T11:25:26.623Z,1000.37
2019-01-13T11:26:26.613Z,1000.37
2019-01-13T11:27:26.617Z,1000.31
2019-01-13T11:28:26.802Z,1000.31
2019-01-13T11:29:32.683Z,1000.33
2019-01-13T11:30:26.594Z,1000.27
2019-01-13T11:31:26.588Z,1000.33
2019-01-13T11:32:26.573Z,1000.34
2019-01-13T11:33:26.567Z,1000.27
2019-01-13T11:34:26.778Z,1000.22
2019-01-13T11:35:26.550Z,1000.20
2019-01-13T11:36:26.549Z,1000.16
2019-01-13T11:37:26.564Z,1000.15
2019-01-13T11:38:26.540Z,1000.12
2019-01-13T11:39:26.747Z,1000.13
2019-01-13T11:40:26.537Z,1000.05
2019-01-13T11:41:26.546Z,1000.06
2019-01-13T11:42:26.510Z,1000.05
2019-01-13T11:43:26.502Z,1000.04
2019-01-13T11:44:26.502Z,1000.02
2019-01-13T11:45:26.496Z,1000.00
2019-01-13T11:46:26.493Z,1000.03
2019-01-13T11:47:26.489Z,1000.02
2019-01-13T11:48:26.690Z,999.93
2019-01-13T11:49:26.475Z,999.90
2019-01-13T11:50:26.476Z,999.93
2019-01-13T11:51:26.477Z,999.96
2019-01-13T11:52:26.454Z,999.88
2019-01-13T11:53:26.488Z,999.92
2019-01-13T11:54:26.451Z,999.93
2019-01-13T11:55:26.446Z,999.89
2019-01-13T11:56:26.448Z,999.92
2019-01-13T11:57:26.447Z,999.91
2019-01-13T11:58:26.634Z,999.93
2019-01-13T11:59:26.434Z,999.94
2019-01-13T12:00:26.430Z,999.91
2019-01-13T12:01:26.429Z,999.92
2019-01-13T12:02:32.514Z,999.86
2019-01-13T12:03:26.418Z,999.86
2019-01-13T12:04:26.412Z,999.87
2019-01-13T12:05:26.411Z,999.80
2019-01-13T12:06:26.415Z,999.83